createdAt,value
2018-08-28T00:01:31.433Z,4.30
2018-08-28T00:04:01.458Z,5.20
2018-08-28T00:06:31.507Z,3.70
2018-08-28T00:09:01.172Z,4.75
2018-08-28T00:11:30.666Z,4.12
2018-08-28T00:14:00.093Z,5.22
2018-08-28T00:16:30.218Z,3.80
2018-08-28T00:18:59.437Z,4.20
2018-08-28T00:21:29.333Z,3.92
2018-08-28T00:24:02.246Z,4.08
2018-08-28T00:26:33.200Z,4.83
2018-08-28T00:29:02.844Z,5.37
2018-08-28T00:31:34.289Z,4.62
2018-08-28T00:34:06.060Z,5.42
2018-08-28T00:36:37.718Z,5.55
2018-08-28T00:39:19.611Z,5.60
2018-08-28T00:41:49.619Z,5.75
2018-08-28T00:44:19.679Z,5.35
2018-08-28T00:46:49.571Z,5.25
2018-08-28T00:49:19.160Z,6.97
2018-08-28T00:51:49.063Z,5.22
2018-08-28T00:54:18.462Z,4.85
2018-08-28T00:56:48.169Z,5.10
2018-08-28T00:59:17.559Z,4.62
2018-08-28T01:01:47.497Z,4.95
2018-08-28T01:04:17.428Z,5.12
2018-08-28T01:06:46.993Z,4.87
2018-08-28T01:09:16.507Z,4.53
2018-08-28T01:11:45.822Z,5.03
2018-08-28T01:14:17.341Z,4.45
2018-08-28T01:16:46.867Z,4.22
2018-08-28T01:19:16.349Z,4.15
2018-08-28T01:21:45.765Z,4.22
2018-08-28T01:24:15.384Z,5.15
2018-08-28T01:26:44.823Z,8.93
2018-08-28T01:29:14.238Z,8.05
2018-08-28T01:31:44.150Z,5.72
2018-08-28T01:34:14.187Z,6.00
2018-08-28T01:36:45.117Z,4.95
2018-08-28T01:39:14.949Z,5.47
2018-08-28T01:41:44.359Z,4.87
2018-08-28T01:44:14.063Z,4.20
2018-08-28T01:46:46.339Z,4.05
2018-08-28T01:49:18.554Z,4.17
2018-08-28T01:51:48.719Z,4.12
2018-08-28T01:54:18.465Z,4.47
2018-08-28T01:56:47.875Z,3.92
2018-08-28T01:59:17.982Z,3.45
2018-08-28T02:01:48.881Z,3.52
2018-08-28T02:04:19.421Z,3.60
2018-08-28T02:06:48.885Z,3.47
2018-08-28T02:09:19.232Z,3.35
2018-08-28T02:11:49.162Z,3.75
2018-08-28T02:14:30.794Z,4.10
2018-08-28T02:17:01.151Z,3.17
2018-08-28T02:19:31.990Z,3.12
2018-08-28T02:22:02.477Z,3.30
2018-08-28T02:24:32.619Z,3.35
2018-08-28T02:27:02.452Z,3.05
2018-08-28T02:29:34.247Z,3.45
2018-08-28T02:32:03.414Z,3.80
2018-08-28T02:34:34.436Z,3.50
2018-08-28T02:37:10.024Z,4.10
2018-08-28T02:39:39.920Z,4.20
2018-08-28T02:42:09.366Z,3.80
2018-08-28T02:44:39.571Z,4.08
2018-08-28T02:47:09.210Z,4.60
2018-08-28T02:49:39.308Z,3.90
2018-08-28T02:52:08.987Z,4.40
2018-08-28T02:54:38.591Z,3.90
2018-08-28T02:57:08.301Z,4.55
2018-08-28T02:59:37.685Z,6.65
2018-08-28T03:02:07.532Z,3.85
2018-08-28T03:04:37.746Z,4.45
2018-08-28T03:07:07.297Z,4.12
2018-08-28T03:09:37.320Z,5.90
2018-08-28T03:12:07.432Z,3.52
2018-08-28T03:14:36.723Z,3.52
2018-08-28T03:17:08.493Z,3.27
2018-08-28T03:19:39.422Z,3.45
2018-08-28T03:22:09.538Z,4.10
2018-08-28T03:24:39.699Z,4.08
2018-08-28T03:27:10.062Z,3.55
2018-08-28T03:29:39.571Z,5.75
2018-08-28T03:32:09.411Z,4.45
2018-08-28T03:34:39.121Z,4.05
2018-08-28T03:37:08.882Z,3.95
2018-08-28T03:39:38.491Z,5.60
2018-08-28T03:42:08.245Z,3.75
2018-08-28T03:44:38.317Z,3.95
2018-08-28T03:47:07.743Z,3.87
2018-08-28T03:49:40.060Z,3.62
2018-08-28T03:52:10.424Z,4.40
2018-08-28T03:54:48.429Z,3.58
2018-08-28T03:57:19.797Z,4.10
2018-08-28T03:59:52.072Z,4.28
2018-08-28T04:02:22.611Z,3.67
2018-08-28T04:04:56.892Z,3.58
2018-08-28T04:07:27.019Z,3.22
2018-08-28T04:09:59.775Z,3.98
2018-08-28T04:12:30.304Z,3.08
2018-08-28T04:18:11.747Z,8.85
2018-08-28T04:20:41.442Z,7.47
2018-08-28T04:23:11.224Z,4.35
2018-08-28T04:25:41.097Z,4.00
2018-08-28T04:28:10.640Z,4.30
2018-08-28T04:30:41.248Z,3.60
2018-08-28T04:33:11.680Z,4.22
2018-08-28T04:35:41.196Z,3.62
2018-08-28T04:38:11.668Z,4.55
2018-08-28T04:40:41.846Z,3.90
2018-08-28T04:43:11.806Z,4.05
2018-08-28T04:45:42.316Z,6.67
2018-08-28T04:48:13.078Z,4.65
2018-08-28T04:50:43.179Z,4.20
2018-08-28T04:53:13.268Z,4.37
2018-08-28T04:55:42.734Z,3.70
2018-08-28T04:58:12.464Z,3.70
2018-08-28T05:00:42.576Z,6.73
2018-08-28T05:03:13.165Z,5.72
2018-08-28T05:05:43.083Z,6.00
2018-08-28T05:08:17.311Z,4.08
2018-08-28T05:10:47.299Z,3.70
2018-08-28T05:13:36.115Z,4.30
2018-08-28T05:16:18.405Z,4.20
2018-08-28T05:18:49.498Z,4.22
2018-08-28T05:21:25.099Z,3.72
2018-08-28T05:23:57.811Z,3.98
2018-08-28T05:26:30.755Z,3.98
2018-08-28T05:29:02.742Z,4.10
2018-08-28T05:31:39.042Z,4.85
2018-08-28T05:34:12.018Z,4.05
2018-08-28T05:36:47.204Z,3.50
2018-08-28T05:39:25.178Z,3.62
2018-08-28T05:41:56.190Z,3.80
2018-08-28T05:44:30.552Z,5.08
2018-08-28T05:47:05.488Z,4.37
2018-08-28T05:49:39.778Z,4.30
2018-08-28T05:52:14.623Z,4.80
2018-08-28T05:55:00.424Z,4.85
2018-08-28T05:57:32.754Z,4.67
2018-08-28T06:00:04.585Z,4.62
2018-08-28T06:02:35.780Z,5.10
2018-08-28T06:05:06.533Z,3.50
2018-08-28T06:07:37.540Z,4.30
2018-08-28T06:10:07.246Z,4.47
2018-08-28T06:12:38.290Z,4.62
2018-08-28T06:15:08.816Z,4.22
2018-08-28T06:17:38.935Z,4.97
2018-08-28T06:20:10.270Z,4.12
2018-08-28T06:22:40.950Z,4.50
2018-08-28T06:25:11.683Z,4.37
2018-08-28T06:27:41.422Z,3.60
2018-08-28T06:30:12.627Z,4.00
2018-08-28T06:32:42.733Z,6.08
2018-08-28T06:35:12.442Z,4.37
2018-08-28T06:37:46.327Z,9.73
2018-08-28T06:40:16.819Z,4.55
2018-08-28T06:42:46.678Z,5.83
2018-08-28T06:45:16.537Z,4.20
2018-08-28T06:47:48.704Z,4.60
2018-08-28T06:50:19.845Z,4.05
2018-08-28T06:52:50.370Z,4.70
2018-08-28T06:55:20.943Z,4.42
2018-08-28T06:57:50.503Z,4.17
2018-08-28T07:00:21.405Z,4.37
2018-08-28T07:02:52.878Z,4.22
2018-08-28T07:05:24.575Z,4.55
2018-08-28T07:07:55.824Z,4.08
2018-08-28T07:10:26.133Z,4.50
2018-08-28T07:12:57.082Z,4.45
2018-08-28T07:15:27.558Z,4.37
2018-08-28T07:17:59.591Z,4.33
2018-08-28T07:20:30.616Z,5.20
2018-08-28T07:23:01.422Z,4.08
2018-08-28T07:25:31.387Z,4.20
2018-08-28T07:28:02.080Z,4.08
2018-08-28T07:30:32.665Z,4.28
2018-08-28T07:33:02.817Z,6.22
2018-08-28T07:35:35.893Z,4.20
2018-08-28T07:38:05.800Z,4.40
2018-08-28T07:40:35.759Z,4.10
2018-08-28T07:43:07.063Z,4.78
2018-08-28T07:45:38.290Z,4.92
2018-08-28T07:48:09.024Z,5.22
2018-08-28T07:50:39.105Z,6.60
2018-08-28T07:53:09.593Z,4.50
2018-08-28T07:55:40.423Z,4.20
2018-08-28T07:58:10.468Z,4.05
2018-08-28T08:00:40.359Z,4.70
2018-08-28T08:03:10.766Z,4.92
2018-08-28T08:05:40.496Z,6.15
2018-08-28T08:08:11.243Z,4.83
2018-08-28T08:10:42.492Z,4.70
2018-08-28T08:13:12.802Z,3.98
2018-08-28T08:15:44.938Z,4.62
2018-08-28T08:18:15.001Z,4.33
2018-08-28T08:20:44.760Z,4.58
2018-08-28T08:23:15.086Z,5.75
2018-08-28T08:25:45.312Z,4.90
2018-08-28T08:28:19.050Z,4.90
2018-08-28T08:30:48.592Z,5.05
2018-08-28T08:33:18.746Z,5.25
2018-08-28T08:35:48.759Z,4.97
2018-08-28T08:38:19.284Z,5.00
2018-08-28T08:40:49.987Z,6.80
2018-08-28T08:43:20.644Z,5.40
2018-08-28T08:45:50.992Z,5.25
2018-08-28T08:48:21.209Z,5.60
2018-08-28T08:50:51.900Z,5.45
2018-08-28T08:53:22.131Z,5.45
2018-08-28T08:55:53.379Z,6.17
2018-08-28T08:58:23.040Z,6.20
2018-08-28T09:00:54.099Z,7.40
2018-08-28T09:03:25.015Z,5.33
2018-08-28T09:05:55.019Z,5.42
2018-08-28T09:08:24.684Z,5.47
2018-08-28T09:10:54.705Z,5.37
2018-08-28T09:13:25.465Z,5.40
2018-08-28T09:15:54.818Z,6.03
2018-08-28T09:18:26.479Z,5.00
2018-08-28T09:20:56.319Z,5.58
2018-08-28T09:23:26.236Z,4.95
2018-08-28T09:25:56.081Z,6.22
2018-08-28T09:28:25.707Z,5.15
2018-08-28T09:30:56.029Z,6.20
2018-08-28T09:33:26.141Z,4.78
2018-08-28T09:35:56.723Z,5.58
2018-08-28T09:38:26.857Z,5.62
2018-08-28T09:40:57.416Z,5.33
2018-08-28T09:43:28.308Z,6.08
2018-08-28T09:45:58.914Z,4.80
2018-08-28T09:48:30.008Z,5.05
2018-08-28T09:51:00.063Z,5.90
2018-08-28T09:53:32.317Z,6.45
2018-08-28T09:56:03.157Z,6.03
2018-08-28T09:58:33.080Z,6.00
2018-08-28T10:01:09.187Z,5.40
2018-08-28T10:03:38.868Z,6.60
2018-08-28T10:06:09.161Z,5.78
2018-08-28T10:08:40.077Z,5.53
2018-08-28T10:11:14.041Z,5.40
2018-08-28T10:13:46.294Z,5.47
2018-08-28T10:16:16.323Z,5.95
2018-08-28T10:18:46.952Z,5.12
2018-08-28T10:21:19.901Z,5.20
2018-08-28T10:23:51.536Z,5.35
2018-08-28T10:26:23.866Z,5.25
2018-08-28T10:28:55.179Z,5.25
2018-08-28T10:31:32.361Z,5.80
2018-08-28T10:34:02.502Z,5.60
2018-08-28T10:36:33.182Z,7.10
2018-08-28T10:39:03.680Z,4.75
2018-08-28T10:41:36.215Z,5.10
2018-08-28T10:44:09.541Z,6.12
2018-08-28T10:46:40.531Z,5.78
2018-08-28T10:49:24.961Z,5.42
2018-08-28T10:51:56.099Z,4.83
2018-08-28T10:54:27.701Z,5.45
2018-08-28T10:56:58.048Z,4.87
2018-08-28T10:59:31.461Z,5.47
2018-08-28T11:02:01.807Z,4.78
2018-08-28T11:04:32.173Z,4.92
2018-08-28T11:07:01.671Z,4.72
2018-08-28T11:09:32.320Z,5.10
2018-08-28T11:12:02.160Z,5.00
2018-08-28T11:14:32.213Z,4.67
2018-08-28T11:17:03.436Z,5.03
2018-08-28T11:19:34.617Z,4.12
2018-08-28T11:22:04.952Z,4.25
2018-08-28T11:24:35.321Z,4.25
2018-08-28T11:27:05.420Z,4.65
2018-08-28T11:29:36.617Z,4.75
2018-08-28T11:32:06.633Z,4.97
2018-08-28T11:34:36.910Z,5.28
2018-08-28T11:37:06.849Z,4.90
2018-08-28T11:39:37.779Z,4.58
2018-08-28T11:42:07.958Z,4.08
2018-08-28T11:44:38.170Z,4.58
2018-08-28T11:47:08.276Z,5.60
2018-08-28T11:49:38.462Z,5.12
2018-08-28T11:52:12.414Z,4.35
2018-08-28T11:54:43.309Z,5.58
2018-08-28T11:57:13.585Z,5.25
2018-08-28T11:59:43.873Z,4.80
2018-08-28T12:02:13.068Z,6.03
2018-08-28T12:04:43.752Z,6.30
2018-08-28T12:07:14.025Z,7.37
2018-08-28T12:09:44.389Z,8.30
2018-08-28T12:12:14.429Z,7.00
2018-08-28T12:14:44.214Z,8.70
2018-08-28T12:17:14.220Z,8.28
2018-08-28T12:19:46.050Z,7.95
2018-08-28T12:22:17.306Z,7.17
2018-08-28T12:24:48.338Z,7.05
2018-08-28T12:27:19.194Z,7.28
2018-08-28T12:29:54.470Z,8.13
2018-08-28T12:33:15.012Z,9.65
2018-08-28T12:35:45.189Z,10.78
2018-08-28T12:38:15.985Z,10.23
2018-08-28T12:40:46.152Z,9.78
2018-08-28T12:43:16.143Z,8.55
2018-08-28T12:45:46.347Z,8.78
2018-08-28T12:48:17.005Z,8.25
2018-08-28T12:50:47.335Z,10.00
2018-08-28T12:53:17.598Z,9.88
2018-08-28T12:55:47.739Z,9.25
2018-08-28T12:58:18.159Z,10.13
2018-08-28T13:00:48.674Z,10.68
2018-08-28T13:03:18.470Z,9.08
2018-08-28T13:05:48.453Z,8.33
2018-08-28T13:08:18.199Z,8.33
2018-08-28T13:10:48.557Z,9.33
2018-08-28T13:13:19.456Z,8.60
2018-08-28T13:15:48.900Z,11.40
2018-08-28T13:18:19.376Z,9.75
2018-08-28T13:20:49.744Z,9.48
2018-08-28T13:23:20.837Z,8.68
2018-08-28T13:25:51.113Z,8.75
2018-08-28T13:28:20.493Z,11.50
2018-08-28T13:30:50.580Z,9.50
2018-08-28T13:33:20.705Z,9.35
2018-08-28T13:35:51.436Z,11.50
2018-08-28T13:38:21.768Z,12.15
2018-08-28T13:40:53.088Z,8.63
2018-08-28T13:43:23.265Z,9.43
2018-08-28T13:45:53.006Z,8.48
2018-08-28T13:48:22.694Z,10.23
2018-08-28T13:50:53.233Z,7.92
2018-08-28T13:53:23.227Z,7.95
2018-08-28T13:55:53.770Z,8.08
2018-08-28T13:58:23.657Z,7.92
2018-08-28T14:00:54.193Z,7.85
2018-08-28T14:03:23.775Z,7.78
2018-08-28T14:05:53.161Z,9.13
2018-08-28T14:08:24.891Z,7.92
2018-08-28T14:10:54.731Z,10.82
2018-08-28T14:13:26.102Z,9.18
2018-08-28T14:15:56.788Z,9.95
2018-08-28T14:18:27.674Z,8.28
2018-08-28T14:20:57.482Z,11.63
2018-08-28T14:23:27.640Z,10.40
2018-08-28T14:25:57.479Z,8.90
2018-08-28T14:28:28.434Z,8.70
2018-08-28T14:30:58.582Z,9.85
2018-08-28T14:33:29.329Z,9.00
2018-08-28T14:35:58.879Z,9.98
2018-08-28T14:38:29.089Z,9.53
2018-08-28T14:40:59.073Z,11.00
2018-08-28T14:43:31.441Z,10.03
2018-08-28T14:46:02.394Z,11.70
2018-08-28T14:48:32.992Z,11.03
2018-08-28T14:51:02.884Z,13.78
2018-08-28T14:53:33.768Z,17.82
2018-08-28T14:56:04.076Z,12.53
2018-08-28T14:58:34.924Z,23.27
2018-08-28T15:01:04.199Z,25.17
2018-08-28T15:03:33.605Z,19.52
2018-08-28T15:06:03.363Z,18.52
2018-08-28T15:08:33.013Z,13.18
2018-08-28T15:11:06.962Z,14.70
2018-08-28T15:13:48.528Z,11.63
2018-08-28T15:16:29.738Z,11.45
2018-08-28T15:19:00.960Z,19.50
2018-08-28T15:21:31.209Z,14.13
2018-08-28T15:24:00.977Z,26.02
2018-08-28T15:26:30.807Z,17.35
2018-08-28T15:29:01.368Z,17.12
2018-08-28T15:31:32.552Z,12.37
2018-08-28T15:34:02.003Z,14.75
2018-08-28T15:36:32.072Z,14.98
2018-08-28T15:39:01.570Z,13.20
2018-08-28T15:41:30.986Z,15.50
2018-08-28T15:44:00.545Z,12.15
2018-08-28T15:46:30.079Z,14.25
2018-08-28T15:49:00.598Z,13.80
2018-08-28T15:51:30.852Z,13.45
2018-08-28T15:54:02.285Z,12.90
2018-08-28T15:56:33.431Z,11.90
2018-08-28T15:59:05.444Z,13.32
2018-08-28T16:01:36.449Z,15.98
2018-08-28T16:04:12.761Z,12.82
2018-08-28T16:06:43.676Z,13.72
2018-08-28T16:09:15.394Z,12.88
2018-08-28T16:11:48.671Z,11.78
2018-08-28T16:14:18.462Z,13.60
2018-08-28T16:16:49.025Z,13.08
2018-08-28T16:19:19.138Z,12.18
2018-08-28T16:21:54.633Z,11.48
2018-08-28T16:24:24.328Z,10.82
2018-08-28T16:26:55.520Z,11.55
2018-08-28T16:29:26.831Z,10.53
2018-08-28T16:31:57.242Z,12.65
2018-08-28T16:34:27.918Z,10.90
2018-08-28T16:36:57.731Z,12.35
2018-08-28T16:39:28.642Z,11.85
2018-08-28T16:41:59.776Z,10.82
2018-08-28T16:44:30.785Z,9.98
2018-08-28T16:47:02.194Z,10.10
2018-08-28T16:49:33.404Z,10.60
2018-08-28T16:52:04.129Z,12.20
2018-08-28T16:54:34.556Z,9.23
2018-08-28T16:57:04.647Z,11.18
2018-08-28T16:59:34.465Z,11.25
2018-08-28T17:02:04.482Z,12.23
2018-08-28T17:04:34.780Z,12.80
2018-08-28T17:07:05.313Z,9.45
2018-08-28T17:09:35.789Z,13.95
2018-08-28T17:12:07.151Z,12.55
2018-08-28T17:14:37.835Z,12.30
2018-08-28T17:17:08.183Z,13.48
2018-08-28T17:19:38.278Z,10.60
2018-08-28T17:22:08.143Z,10.03
2018-08-28T17:24:40.109Z,9.73
2018-08-28T17:27:10.619Z,9.83
2018-08-28T17:29:40.499Z,9.25
2018-08-28T17:32:11.267Z,9.63
2018-08-28T17:34:40.500Z,12.80
2018-08-28T17:37:11.355Z,10.23
2018-08-28T17:39:41.955Z,9.80
2018-08-28T17:42:12.660Z,10.20
2018-08-28T17:44:42.671Z,10.50
2018-08-28T17:47:12.776Z,9.50
2018-08-28T17:49:42.744Z,10.70
2018-08-28T17:52:12.716Z,11.30
2018-08-28T17:54:42.758Z,11.83
2018-08-28T17:57:12.292Z,12.98
2018-08-28T17:59:41.769Z,10.43
2018-08-28T18:02:11.472Z,11.43
2018-08-28T18:04:40.864Z,11.28
2018-08-28T18:07:10.653Z,12.35
2018-08-28T18:09:40.995Z,11.12
2018-08-28T18:12:11.340Z,13.70
2018-08-28T18:14:41.185Z,11.43
2018-08-28T18:17:11.073Z,12.60
2018-08-28T18:19:41.476Z,13.38
2018-08-28T18:22:11.504Z,17.35
2018-08-28T18:24:41.858Z,10.70
2018-08-28T18:27:11.709Z,11.80
2018-08-28T18:29:41.416Z,12.33
2018-08-28T18:32:11.714Z,10.15
2018-08-28T18:34:41.524Z,14.15
2018-08-28T18:37:14.122Z,14.87
2018-08-28T18:39:45.637Z,13.40
2018-08-28T18:42:15.465Z,12.07
2018-08-28T18:44:45.259Z,14.80
2018-08-28T18:47:15.253Z,11.43
2018-08-28T18:49:45.018Z,11.45
2018-08-28T18:52:14.667Z,11.35
2018-08-28T18:54:45.283Z,11.55
2018-08-28T18:57:15.419Z,13.75
2018-08-28T18:59:45.018Z,19.62
2018-08-28T19:02:16.111Z,13.40
2018-08-28T19:04:46.021Z,13.60
2018-08-28T19:07:15.940Z,10.75
2018-08-28T19:09:46.726Z,13.50
2018-08-28T19:12:16.677Z,11.90
2018-08-28T19:14:46.479Z,12.43
2018-08-28T19:17:16.229Z,13.22
2018-08-28T19:19:46.478Z,12.40
2018-08-28T19:22:16.150Z,13.65
2018-08-28T19:24:46.329Z,12.98
2018-08-28T19:27:17.213Z,12.45
2018-08-28T19:29:47.995Z,13.83
2018-08-28T19:32:18.679Z,14.20
2018-08-28T19:34:48.984Z,13.18
2018-08-28T19:37:19.200Z,14.85
2018-08-28T19:39:49.765Z,14.93
2018-08-28T19:42:19.605Z,13.38
2018-08-28T19:44:49.322Z,14.15
2018-08-28T19:47:19.668Z,12.88
2018-08-28T19:49:51.000Z,15.13
2018-08-28T19:52:20.933Z,12.53
2018-08-28T19:54:51.856Z,11.63
2018-08-28T19:57:21.365Z,13.78
2018-08-28T19:59:53.793Z,15.32
2018-08-28T20:02:28.328Z,17.65
2018-08-28T20:05:00.334Z,15.38
2018-08-28T20:07:31.801Z,12.73
2018-08-28T20:10:04.286Z,13.75
2018-08-28T20:12:34.020Z,12.68
2018-08-28T20:15:04.318Z,14.00
2018-08-28T20:17:34.436Z,14.15
2018-08-28T20:20:04.818Z,12.98
2018-08-28T20:22:34.440Z,14.58
2018-08-28T20:25:08.043Z,12.82
2018-08-28T20:27:37.992Z,12.10
2018-08-28T20:30:08.308Z,20.48
2018-08-28T20:32:38.842Z,15.25
2018-08-28T20:35:08.922Z,17.02
2018-08-28T20:37:38.837Z,15.90
2018-08-28T20:40:08.533Z,13.53
2018-08-28T20:42:38.833Z,16.07
2018-08-28T20:45:09.411Z,15.32
2018-08-28T20:47:39.845Z,16.15
2018-08-28T20:50:10.079Z,16.97
2018-08-28T20:52:39.958Z,18.07
2018-08-28T20:55:10.300Z,15.88
2018-08-28T20:57:40.312Z,13.80
2018-08-28T21:00:10.660Z,17.10
2018-08-28T21:02:40.622Z,19.40
2018-08-28T21:05:10.511Z,14.47
2018-08-28T21:07:40.949Z,17.60
2018-08-28T21:10:10.513Z,15.13
2018-08-28T21:12:40.057Z,15.78
2018-08-28T21:15:09.580Z,16.02
2018-08-28T21:17:39.529Z,16.93
2018-08-28T21:20:10.388Z,14.23
2018-08-28T21:22:40.624Z,15.60
2018-08-28T21:25:11.811Z,13.83
2018-08-28T21:27:44.537Z,15.78
2018-08-28T21:30:17.583Z,14.90
2018-08-28T21:32:54.661Z,13.35
2018-08-28T21:35:25.175Z,16.55
2018-08-28T21:37:55.178Z,18.23
2018-08-28T21:40:43.834Z,15.40
2018-08-28T21:43:14.686Z,18.02
2018-08-28T21:45:44.480Z,18.37
2018-08-28T21:48:13.984Z,15.23
2018-08-28T21:50:44.406Z,16.27
2018-08-28T21:53:14.324Z,16.85
2018-08-28T21:55:43.928Z,14.60
2018-08-28T21:58:13.791Z,17.40
2018-08-28T22:00:43.798Z,14.05
2018-08-28T22:03:13.791Z,19.85
2018-08-28T22:05:44.868Z,16.55
2018-08-28T22:08:14.764Z,15.50
2018-08-28T22:11:06.540Z,13.48
2018-08-28T22:13:37.726Z,16.82
2018-08-28T22:16:07.335Z,16.32
2018-08-28T22:18:49.675Z,15.53
2018-08-28T22:21:19.468Z,16.45
2018-08-28T22:23:49.065Z,15.20
2018-08-28T22:26:18.738Z,17.25
2018-08-28T22:28:49.440Z,16.57
2018-08-28T22:31:19.404Z,15.40
2018-08-28T22:33:49.024Z,16.07
2018-08-28T22:36:19.474Z,18.65
2018-08-28T22:38:50.304Z,17.15
2018-08-28T22:41:38.705Z,17.20
2018-08-28T22:44:09.523Z,18.52
2018-08-28T22:46:39.409Z,15.53
2018-08-28T22:49:09.405Z,19.77
2018-08-28T22:51:59.214Z,16.40
2018-08-28T22:54:29.423Z,18.02
2018-08-28T22:56:58.880Z,17.73
2018-08-28T22:59:28.233Z,15.58
2018-08-28T23:01:58.848Z,16.83
2018-08-28T23:04:29.180Z,15.10
2018-08-28T23:07:01.100Z,16.95
2018-08-28T23:09:30.406Z,16.37
2018-08-28T23:12:00.382Z,18.50
2018-08-28T23:14:30.967Z,17.20
2018-08-28T23:17:00.547Z,18.95
2018-08-28T23:19:29.977Z,16.37
2018-08-28T23:22:00.452Z,16.77
2018-08-28T23:24:30.170Z,19.45
2018-08-28T23:27:00.502Z,16.20
2018-08-28T23:29:30.006Z,18.35
2018-08-28T23:31:59.798Z,17.77
2018-08-28T23:34:29.630Z,17.02
2018-08-28T23:37:00.123Z,18.05
2018-08-28T23:39:29.634Z,18.48
2018-08-28T23:45:12.276Z,19.20
2018-08-28T23:47:43.050Z,20.50
2018-08-28T23:50:12.956Z,18.73
2018-08-28T23:52:43.344Z,20.37
2018-08-28T23:55:12.954Z,17.98
2018-08-28T23:57:44.408Z,17.67
